Aeroporto :
LOGIN :

Iscrizione | Disclaimer

   EN    FR    IT 

 










Sommario :    VFR   VFR Marginale   IFR   IFR Intensivo   IFR Molto Intensivo
Visibilità : 
Base nubi : 
>= 8 km
>= 3000ft
5 / 8 km
1000 / 3000 ft
1500m / 5 km
500 / 1000 ft
800 / 1500m
200 / 500 ft
< 800m
< 200 ft
Simboli :   Temporali  Nebbia  Neve Forte  Precipitazioni Forti  Vento > 20 kt
SIGMETs :   Varie  Temporali  Ghiacco  Turbolenza  Onda orograficha  Ceneri Vulcaniche






- Altitudine del aeroporto : 33 ft
- Codice IATA : MHZ


EGUN - RAF Mildenhall

ULTIMO METAR :
  • 131056Z AUTO 24007KT 9999 CLR 06/06 A2951 RMK AO2 SLP997 T00640064 $

METARs OBSOLETI :
  • 130956Z AUTO 24006KT 9999 FEW170 06/06 A2953 RMK AO2 SLP003 T00550055 $
  • 130856Z AUTO 24007KT 9999 CLR 04/04 A2953 RMK AO2 SLP003 T00350035 50003 $

TAF TAF EGUN
Valido dal 13 a 04 ore il 14 a 10 ore UTC


130400Z 1304/1410 28012KT 9999 SCT030 QNH2947INS
BECMG 1312/1313 22009KT 9999 SCT030 QNH2934INS
BECMG 1320/1321 10009KT 9999 SCT015 BKN030 QNH2928INS
BECMG 1405/1406 06012G20KT 6000 -RA BR BKN010 OVC020 620408 QNH2933INS TX08/1313Z TN03/1306Z



MetMap, La meteo Aeronautica in un colpo d'occhio ! - Copyright ORBIFLY Dicembre 2007 - Disclaimer

ORBIFLY MET'MAP TEAM :

Programmazione e sviluppo : Alexandra Zaïnal
Concezione e sviluppo : Baudouin d'Aumeries
Co-Programmazione e sviluppo : Marc-Olivier Méhu
Supporto tecnico e logistico : Manuel Goepfert
Aiuto per la traduzione : Arnaldo La Scala

Contatto : metmap@orbifly.com




FONTI E CREDITI :

   NOAA